sensor_id;sensor_type;location;lat;lon;timestamp;temperature;humidity
34927;DHT22;21132;48.308;14.274;2022-11-18T00:00:55;9.90;69.10
34927;DHT22;21132;48.308;14.274;2022-11-18T00:03:22;9.90;69.00
34927;DHT22;21132;48.308;14.274;2022-11-18T00:05:55;10.00;69.00
34927;DHT22;21132;48.308;14.274;2022-11-18T00:08:22;10.00;69.00
34927;DHT22;21132;48.308;14.274;2022-11-18T00:10:49;10.00;69.00
34927;DHT22;21132;48.308;14.274;2022-11-18T00:13:15;10.10;69.10
34927;DHT22;21132;48.308;14.274;2022-11-18T00:16:07;10.00;69.10
34927;DHT22;21132;48.308;14.274;2022-11-18T00:18:33;10.10;69.10
34927;DHT22;21132;48.308;14.274;2022-11-18T00:21:10;10.10;69.20
34927;DHT22;21132;48.308;14.274;2022-11-18T00:23:37;10.20;69.10
34927;DHT22;21132;48.308;14.274;2022-11-18T00:26:07;10.20;69.10
34927;DHT22;21132;48.308;14.274;2022-11-18T00:28:33;10.20;69.00
34927;DHT22;21132;48.308;14.274;2022-11-18T00:31:04;10.30;69.00
34927;DHT22;21132;48.308;14.274;2022-11-18T00:33:31;10.30;68.90
34927;DHT22;21132;48.308;14.274;2022-11-18T00:35:57;10.30;68.80
34927;DHT22;21132;48.308;14.274;2022-11-18T00:38:24;10.30;68.70
34927;DHT22;21132;48.308;14.274;2022-11-18T00:41:02;10.40;68.60
34927;DHT22;21132;48.308;14.274;2022-11-18T00:43:28;10.40;68.60
34927;DHT22;21132;48.308;14.274;2022-11-18T00:45:54;10.40;68.50
34927;DHT22;21132;48.308;14.274;2022-11-18T00:48:20;10.50;68.50
34927;DHT22;21132;48.308;14.274;2022-11-18T00:50:54;10.50;68.40
34927;DHT22;21132;48.308;14.274;2022-11-18T00:53:21;10.50;68.20
34927;DHT22;21132;48.308;14.274;2022-11-18T00:55:47;10.50;68.00
34927;DHT22;21132;48.308;14.274;2022-11-18T00:58:14;10.40;67.80
34927;DHT22;21132;48.308;14.274;2022-11-18T01:00:44;10.40;67.80
34927;DHT22;21132;48.308;14.274;2022-11-18T01:03:11;10.40;68.00
34927;DHT22;21132;48.308;14.274;2022-11-18T01:05:38;10.40;68.00
34927;DHT22;21132;48.308;14.274;2022-11-18T01:08:06;10.40;68.00
34927;DHT22;21132;48.308;14.274;2022-11-18T01:10:32;10.40;68.10
34927;DHT22;21132;48.308;14.274;2022-11-18T01:12:58;10.40;68.20
34927;DHT22;21132;48.308;14.274;2022-11-18T01:15:44;10.40;68.40
34927;DHT22;21132;48.308;14.274;2022-11-18T01:18:10;10.40;68.50
34927;DHT22;21132;48.308;14.274;2022-11-18T01:20:36;10.50;68.60
34927;DHT22;21132;48.308;14.274;2022-11-18T01:23:02;10.50;68.60
34927;DHT22;21132;48.308;14.274;2022-11-18T01:25:28;10.50;68.70
34927;DHT22;21132;48.308;14.274;2022-11-18T01:27:54;10.50;68.70
34927;DHT22;21132;48.308;14.274;2022-11-18T01:30:21;10.60;68.80
34927;DHT22;21132;48.308;14.274;2022-11-18T01:32:47;10.60;68.70
34927;DHT22;21132;48.308;14.274;2022-11-18T01:35:13;10.60;68.70
34927;DHT22;21132;48.308;14.274;2022-11-18T01:37:39;10.60;68.70
34927;DHT22;21132;48.308;14.274;2022-11-18T01:40:06;10.70;68.70
34927;DHT22;21132;48.308;14.274;2022-11-18T01:42:33;10.70;68.60
34927;DHT22;21132;48.308;14.274;2022-11-18T01:45:25;10.70;68.60
34927;DHT22;21132;48.308;14.274;2022-11-18T01:48:03;10.80;68.50
34927;DHT22;21132;48.308;14.274;2022-11-18T01:50:34;10.80;68.30
34927;DHT22;21132;48.308;14.274;2022-11-18T01:53:08;10.80;68.10
34927;DHT22;21132;48.308;14.274;2022-11-18T01:55:39;10.80;68.00
34927;DHT22;21132;48.308;14.274;2022-11-18T01:58:14;10.80;67.90
34927;DHT22;21132;48.308;14.274;2022-11-18T02:00:42;10.80;67.80
34927;DHT22;21132;48.308;14.274;2022-11-18T02:03:08;10.80;67.80
34927;DHT22;21132;48.308;14.274;2022-11-18T02:05:34;10.70;67.70
34927;DHT22;21132;48.308;14.274;2022-11-18T02:08:00;10.70;67.70
34927;DHT22;21132;48.308;14.274;2022-11-18T02:10:27;10.70;67.70
34927;DHT22;21132;48.308;14.274;2022-11-18T02:12:54;10.70;67.80
34927;DHT22;21132;48.308;14.274;2022-11-18T02:15:32;10.70;67.80
34927;DHT22;21132;48.308;14.274;2022-11-18T02:18:17;10.70;67.70
34927;DHT22;21132;48.308;14.274;2022-11-18T02:20:46;10.70;67.60
34927;DHT22;21132;48.308;14.274;2022-11-18T02:23:33;10.80;67.50
34927;DHT22;21132;48.308;14.274;2022-11-18T02:29:28;10.70;67.30
34927;DHT22;21132;48.308;14.274;2022-11-18T02:31:59;10.80;67.40
34927;DHT22;21132;48.308;14.274;2022-11-18T02:34:56;10.80;67.40
34927;DHT22;21132;48.308;14.274;2022-11-18T02:37:37;10.80;67.40
34927;DHT22;21132;48.308;14.274;2022-11-18T02:40:42;10.80;67.40
34927;DHT22;21132;48.308;14.274;2022-11-18T02:43:19;10.80;67.40
34927;DHT22;21132;48.308;14.274;2022-11-18T02:45:49;10.90;67.40
34927;DHT22;21132;48.308;14.274;2022-11-18T02:48:17;10.90;67.40
34927;DHT22;21132;48.308;14.274;2022-11-18T02:50:46;10.90;67.30
34927;DHT22;21132;48.308;14.274;2022-11-18T02:53:17;10.90;67.30
34927;DHT22;21132;48.308;14.274;2022-11-18T02:55:44;10.90;67.30
34927;DHT22;21132;48.308;14.274;2022-11-18T02:58:13;10.90;67.30
34927;DHT22;21132;48.308;14.274;2022-11-18T03:00:40;10.90;67.30
34927;DHT22;21132;48.308;14.274;2022-11-18T03:08:49;11.00;67.30
34927;DHT22;21132;48.308;14.274;2022-11-18T03:11:29;11.00;67.10
34927;DHT22;21132;48.308;14.274;2022-11-18T03:14:13;11.00;67.00
34927;DHT22;21132;48.308;14.274;2022-11-18T03:17:02;10.90;67.00
34927;DHT22;21132;48.308;14.274;2022-11-18T03:22:17;11.00;67.10
34927;DHT22;21132;48.308;14.274;2022-11-18T03:27:41;11.00;67.30
34927;DHT22;21132;48.308;14.274;2022-11-18T03:30:20;11.00;67.40
34927;DHT22;21132;48.308;14.274;2022-11-18T03:33:00;11.00;67.20
34927;DHT22;21132;48.308;14.274;2022-11-18T03:35:30;11.10;67.20
34927;DHT22;21132;48.308;14.274;2022-11-18T03:38:02;11.10;67.20
34927;DHT22;21132;48.308;14.274;2022-11-18T03:40:30;11.10;67.20
34927;DHT22;21132;48.308;14.274;2022-11-18T03:43:03;11.10;68.00
34927;DHT22;21132;48.308;14.274;2022-11-18T03:45:35;11.10;67.30
34927;DHT22;21132;48.308;14.274;2022-11-18T03:48:16;11.10;67.30
34927;DHT22;21132;48.308;14.274;2022-11-18T03:50:46;11.10;67.10
34927;DHT22;21132;48.308;14.274;2022-11-18T03:53:15;11.10;67.10
34927;DHT22;21132;48.308;14.274;2022-11-18T03:55:45;11.10;67.10
34927;DHT22;21132;48.308;14.274;2022-11-18T03:58:23;11.10;67.10
34927;DHT22;21132;48.308;14.274;2022-11-18T04:00:55;11.20;67.20
34927;DHT22;21132;48.308;14.274;2022-11-18T04:03:22;11.20;67.10
34927;DHT22;21132;48.308;14.274;2022-11-18T04:05:55;11.20;67.20
34927;DHT22;21132;48.308;14.274;2022-11-18T04:08:27;11.20;67.00
34927;DHT22;21132;48.308;14.274;2022-11-18T04:11:07;11.20;66.90
34927;DHT22;21132;48.308;14.274;2022-11-18T04:13:36;11.20;66.80
34927;DHT22;21132;48.308;14.274;2022-11-18T04:16:02;11.20;66.70
34927;DHT22;21132;48.308;14.274;2022-11-18T04:18:28;11.30;66.80
34927;DHT22;21132;48.308;14.274;2022-11-18T04:20:54;11.30;66.80
34927;DHT22;21132;48.308;14.274;2022-11-18T04:23:20;11.30;66.80
34927;DHT22;21132;48.308;14.274;2022-11-18T04:25:45;11.30;66.80
34927;DHT22;21132;48.308;14.274;2022-11-18T04:28:11;11.30;66.80
34927;DHT22;21132;48.308;14.274;2022-11-18T04:30:37;11.30;66.70
34927;DHT22;21132;48.308;14.274;2022-11-18T04:33:03;11.30;66.70
34927;DHT22;21132;48.308;14.274;2022-11-18T04:35:29;11.30;66.70
34927;DHT22;21132;48.308;14.274;2022-11-18T04:37:55;11.30;66.70
34927;DHT22;21132;48.308;14.274;2022-11-18T04:40:21;11.30;66.50
34927;DHT22;21132;48.308;14.274;2022-11-18T04:42:46;11.30;66.50
34927;DHT22;21132;48.308;14.274;2022-11-18T04:45:14;11.30;66.50
34927;DHT22;21132;48.308;14.274;2022-11-18T04:47:40;11.20;66.50
34927;DHT22;21132;48.308;14.274;2022-11-18T04:50:06;11.20;66.50
34927;DHT22;21132;48.308;14.274;2022-11-18T04:52:31;11.20;66.60
34927;DHT22;21132;48.308;14.274;2022-11-18T04:54:57;11.20;66.80
34927;DHT22;21132;48.308;14.274;2022-11-18T04:57:23;11.20;67.00
34927;DHT22;21132;48.308;14.274;2022-11-18T04:59:49;11.20;67.10
34927;DHT22;21132;48.308;14.274;2022-11-18T05:02:15;11.20;67.10
34927;DHT22;21132;48.308;14.274;2022-11-18T05:04:41;11.20;67.20
34927;DHT22;21132;48.308;14.274;2022-11-18T05:07:07;11.20;67.20
34927;DHT22;21132;48.308;14.274;2022-11-18T05:09:33;11.20;67.20
34927;DHT22;21132;48.308;14.274;2022-11-18T05:11:59;11.20;67.20
34927;DHT22;21132;48.308;14.274;2022-11-18T05:14:44;11.30;67.30
34927;DHT22;21132;48.308;14.274;2022-11-18T05:17:10;11.30;67.20
34927;DHT22;21132;48.308;14.274;2022-11-18T05:19:38;11.30;67.20
34927;DHT22;21132;48.308;14.274;2022-11-18T05:22:06;11.30;67.20
34927;DHT22;21132;48.308;14.274;2022-11-18T05:24:32;11.30;67.30
34927;DHT22;21132;48.308;14.274;2022-11-18T05:26:57;11.30;67.30
34927;DHT22;21132;48.308;14.274;2022-11-18T05:29:23;11.30;67.20
34927;DHT22;21132;48.308;14.274;2022-11-18T05:31:49;11.30;67.00
34927;DHT22;21132;48.308;14.274;2022-11-18T05:34:15;11.40;67.00
34927;DHT22;21132;48.308;14.274;2022-11-18T05:36:42;11.30;66.90
34927;DHT22;21132;48.308;14.274;2022-11-18T05:39:08;11.30;66.90
34927;DHT22;21132;48.308;14.274;2022-11-18T05:41:34;11.30;66.80
34927;DHT22;21132;48.308;14.274;2022-11-18T05:44:20;11.40;66.90
34927;DHT22;21132;48.308;14.274;2022-11-18T05:46:45;11.30;66.80
34927;DHT22;21132;48.308;14.274;2022-11-18T05:49:11;11.40;66.90
34927;DHT22;21132;48.308;14.274;2022-11-18T05:51:37;11.40;66.90
34927;DHT22;21132;48.308;14.274;2022-11-18T05:54:05;11.40;66.90
34927;DHT22;21132;48.308;14.274;2022-11-18T05:56:35;11.40;66.90
34927;DHT22;21132;48.308;14.274;2022-11-18T05:59:01;11.40;66.90
34927;DHT22;21132;48.308;14.274;2022-11-18T06:01:32;11.40;66.90
34927;DHT22;21132;48.308;14.274;2022-11-18T06:04:00;11.40;66.90
34927;DHT22;21132;48.308;14.274;2022-11-18T06:06:28;11.40;66.90
34927;DHT22;21132;48.308;14.274;2022-11-18T06:09:05;11.40;67.00
34927;DHT22;21132;48.308;14.274;2022-11-18T06:11:36;11.40;66.90
34927;DHT22;21132;48.308;14.274;2022-11-18T06:14:12;11.50;66.90
34927;DHT22;21132;48.308;14.274;2022-11-18T06:16:43;11.40;66.90
34927;DHT22;21132;48.308;14.274;2022-11-18T06:19:10;11.40;66.80
34927;DHT22;21132;48.308;14.274;2022-11-18T06:21:36;11.50;66.80
34927;DHT22;21132;48.308;14.274;2022-11-18T06:24:02;11.40;66.80
34927;DHT22;21132;48.308;14.274;2022-11-18T06:26:28;11.50;66.80
34927;DHT22;21132;48.308;14.274;2022-11-18T06:28:55;11.50;66.80
34927;DHT22;21132;48.308;14.274;2022-11-18T06:31:21;11.50;66.80
34927;DHT22;21132;48.308;14.274;2022-11-18T06:33:46;11.50;66.90
34927;DHT22;21132;48.308;14.274;2022-11-18T06:36:12;11.50;66.80
34927;DHT22;21132;48.308;14.274;2022-11-18T06:38:38;11.60;66.80
34927;DHT22;21132;48.308;14.274;2022-11-18T06:41:04;11.60;66.90
34927;DHT22;21132;48.308;14.274;2022-11-18T06:43:29;11.50;66.70
34927;DHT22;21132;48.308;14.274;2022-11-18T06:46:09;11.60;66.80
34927;DHT22;21132;48.308;14.274;2022-11-18T06:48:55;11.60;66.90
34927;DHT22;21132;48.308;14.274;2022-11-18T06:51:21;11.60;66.90
34927;DHT22;21132;48.308;14.274;2022-11-18T06:53:46;11.60;67.00
34927;DHT22;21132;48.308;14.274;2022-11-18T06:56:14;11.60;66.80
34927;DHT22;21132;48.308;14.274;2022-11-18T06:58:40;11.60;66.80
34927;DHT22;21132;48.308;14.274;2022-11-18T07:01:21;11.50;66.70
34927;DHT22;21132;48.308;14.274;2022-11-18T07:03:48;11.50;66.70
34927;DHT22;21132;48.308;14.274;2022-11-18T07:06:16;11.60;66.90
34927;DHT22;21132;48.308;14.274;2022-11-18T07:08:43;11.60;66.90
34927;DHT22;21132;48.308;14.274;2022-11-18T07:11:11;11.60;67.00
34927;DHT22;21132;48.308;14.274;2022-11-18T07:13:37;11.60;67.00
34927;DHT22;21132;48.308;14.274;2022-11-18T07:16:09;11.60;67.10
34927;DHT22;21132;48.308;14.274;2022-11-18T07:18:37;11.60;67.10
34927;DHT22;21132;48.308;14.274;2022-11-18T07:21:09;11.60;67.20
34927;DHT22;21132;48.308;14.274;2022-11-18T07:23:35;11.50;67.20
34927;DHT22;21132;48.308;14.274;2022-11-18T07:26:02;11.50;67.30
34927;DHT22;21132;48.308;14.274;2022-11-18T07:28:30;11.50;67.50
34927;DHT22;21132;48.308;14.274;2022-11-18T07:31:16;11.50;67.50
34927;DHT22;21132;48.308;14.274;2022-11-18T07:33:43;11.50;67.70
34927;DHT22;21132;48.308;14.274;2022-11-18T07:36:14;11.50;67.90
34927;DHT22;21132;48.308;14.274;2022-11-18T07:38:40;11.50;68.10
34927;DHT22;21132;48.308;14.274;2022-11-18T07:41:11;11.50;67.90
34927;DHT22;21132;48.308;14.274;2022-11-18T07:43:38;11.50;67.80
34927;DHT22;21132;48.308;14.274;2022-11-18T07:46:17;11.50;67.80
34927;DHT22;21132;48.308;14.274;2022-11-18T07:48:45;11.50;67.90
34927;DHT22;21132;48.308;14.274;2022-11-18T07:51:12;11.50;68.00
34927;DHT22;21132;48.308;14.274;2022-11-18T07:53:38;11.50;68.10
34927;DHT22;21132;48.308;14.274;2022-11-18T07:56:05;11.50;68.30
34927;DHT22;21132;48.308;14.274;2022-11-18T07:58:31;11.50;68.40
34927;DHT22;21132;48.308;14.274;2022-11-18T08:00:57;11.50;68.50
34927;DHT22;21132;48.308;14.274;2022-11-18T08:03:26;11.50;68.50
34927;DHT22;21132;48.308;14.274;2022-11-18T08:06:00;11.50;68.20
34927;DHT22;21132;48.308;14.274;2022-11-18T08:08:26;11.50;68.20
34927;DHT22;21132;48.308;14.274;2022-11-18T08:11:00;11.50;68.30
34927;DHT22;21132;48.308;14.274;2022-11-18T08:13:27;11.60;68.40
34927;DHT22;21132;48.308;14.274;2022-11-18T08:15:53;11.50;67.90
34927;DHT22;21132;48.308;14.274;2022-11-18T08:18:19;11.50;67.80
34927;DHT22;21132;48.308;14.274;2022-11-18T08:20:46;11.50;68.30
34927;DHT22;21132;48.308;14.274;2022-11-18T08:23:13;11.60;68.80
34927;DHT22;21132;48.308;14.274;2022-11-18T08:25:40;11.60;68.90
34927;DHT22;21132;48.308;14.274;2022-11-18T08:28:07;11.60;68.80
34927;DHT22;21132;48.308;14.274;2022-11-18T08:30:34;11.70;69.10
34927;DHT22;21132;48.308;14.274;2022-11-18T08:33:00;11.70;69.00
34927;DHT22;21132;48.308;14.274;2022-11-18T08:35:27;11.80;69.20
34927;DHT22;21132;48.308;14.274;2022-11-18T08:37:54;11.90;69.40
34927;DHT22;21132;48.308;14.274;2022-11-18T08:40:20;11.90;69.50
34927;DHT22;21132;48.308;14.274;2022-11-18T08:42:46;12.00;69.60
34927;DHT22;21132;48.308;14.274;2022-11-18T08:45:12;12.00;69.40
34927;DHT22;21132;48.308;14.274;2022-11-18T08:47:38;12.10;69.40
34927;DHT22;21132;48.308;14.274;2022-11-18T08:50:06;12.20;69.40
34927;DHT22;21132;48.308;14.274;2022-11-18T08:52:32;12.30;69.40
34927;DHT22;21132;48.308;14.274;2022-11-18T08:54:58;12.30;69.00
34927;DHT22;21132;48.308;14.274;2022-11-18T08:57:24;12.40;68.90
34927;DHT22;21132;48.308;14.274;2022-11-18T08:59:50;12.50;69.00
34927;DHT22;21132;48.308;14.274;2022-11-18T09:02:18;12.50;69.20
34927;DHT22;21132;48.308;14.274;2022-11-18T09:04:46;12.60;69.20
34927;DHT22;21132;48.308;14.274;2022-11-18T09:07:12;12.60;68.60
34927;DHT22;21132;48.308;14.274;2022-11-18T09:09:37;12.70;68.60
34927;DHT22;21132;48.308;14.274;2022-11-18T09:12:03;12.80;68.50
34927;DHT22;21132;48.308;14.274;2022-11-18T09:14:30;12.80;68.40
34927;DHT22;21132;48.308;14.274;2022-11-18T09:16:56;12.80;68.10
34927;DHT22;21132;48.308;14.274;2022-11-18T09:19:21;12.80;67.80
34927;DHT22;21132;48.308;14.274;2022-11-18T09:21:47;12.90;67.80
34927;DHT22;21132;48.308;14.274;2022-11-18T09:24:13;12.90;67.60
34927;DHT22;21132;48.308;14.274;2022-11-18T09:26:39;12.90;67.30
34927;DHT22;21132;48.308;14.274;2022-11-18T09:29:05;12.90;67.50
34927;DHT22;21132;48.308;14.274;2022-11-18T09:31:31;12.90;67.50
34927;DHT22;21132;48.308;14.274;2022-11-18T09:34:00;12.90;67.70
34927;DHT22;21132;48.308;14.274;2022-11-18T09:36:26;12.90;68.00
34927;DHT22;21132;48.308;14.274;2022-11-18T09:38:52;12.90;68.30
34927;DHT22;21132;48.308;14.274;2022-11-18T09:44:12;13.00;68.10
34927;DHT22;21132;48.308;14.274;2022-11-18T09:49:31;13.00;68.30
34927;DHT22;21132;48.308;14.274;2022-11-18T09:52:03;13.00;68.50
34927;DHT22;21132;48.308;14.274;2022-11-18T09:54:33;13.00;68.60
34927;DHT22;21132;48.308;14.274;2022-11-18T09:57:00;13.10;68.60
34927;DHT22;21132;48.308;14.274;2022-11-18T09:59:29;13.10;68.60
34927;DHT22;21132;48.308;14.274;2022-11-18T10:02:34;13.10;68.60
34927;DHT22;21132;48.308;14.274;2022-11-18T10:05:17;13.10;68.40
34927;DHT22;21132;48.308;14.274;2022-11-18T10:08:08;13.10;68.30
34927;DHT22;21132;48.308;14.274;2022-11-18T10:10:49;13.20;68.50
34927;DHT22;21132;48.308;14.274;2022-11-18T10:16:31;13.20;68.00
34927;DHT22;21132;48.308;14.274;2022-11-18T10:24:24;13.20;68.20
34927;DHT22;21132;48.308;14.274;2022-11-18T10:26:56;13.20;68.40
34927;DHT22;21132;48.308;14.274;2022-11-18T10:29:22;13.20;68.50
34927;DHT22;21132;48.308;14.274;2022-11-18T10:32:06;13.20;68.40
34927;DHT22;21132;48.308;14.274;2022-11-18T10:34:35;13.20;68.10
34927;DHT22;21132;48.308;14.274;2022-11-18T10:37:32;13.20;68.40
34927;DHT22;21132;48.308;14.274;2022-11-18T10:40:00;13.30;68.80
34927;DHT22;21132;48.308;14.274;2022-11-18T10:42:44;13.30;68.80
34927;DHT22;21132;48.308;14.274;2022-11-18T10:45:24;13.30;68.70
34927;DHT22;21132;48.308;14.274;2022-11-18T10:48:16;13.40;68.40
34927;DHT22;21132;48.308;14.274;2022-11-18T10:50:47;13.40;68.10
34927;DHT22;21132;48.308;14.274;2022-11-18T10:53:33;13.40;68.20
34927;DHT22;21132;48.308;14.274;2022-11-18T10:56:02;13.40;68.20
34927;DHT22;21132;48.308;14.274;2022-11-18T10:58:30;13.30;67.80
34927;DHT22;21132;48.308;14.274;2022-11-18T11:01:20;13.40;67.90
34927;DHT22;21132;48.308;14.274;2022-11-18T11:04:02;13.40;68.10
34927;DHT22;21132;48.308;14.274;2022-11-18T11:08:59;13.40;68.10
34927;DHT22;21132;48.308;14.274;2022-11-18T11:11:38;13.40;68.00
34927;DHT22;21132;48.308;14.274;2022-11-18T11:14:35;13.40;68.00
34927;DHT22;21132;48.308;14.274;2022-11-18T11:17:09;13.50;68.10
34927;DHT22;21132;48.308;14.274;2022-11-18T11:22:12;13.50;67.90
34927;DHT22;21132;48.308;14.274;2022-11-18T11:24:38;13.50;68.00
34927;DHT22;21132;48.308;14.274;2022-11-18T11:27:20;13.50;68.20
34927;DHT22;21132;48.308;14.274;2022-11-18T11:32:47;13.60;68.70
34927;DHT22;21132;48.308;14.274;2022-11-18T11:35:21;13.70;68.40
34927;DHT22;21132;48.308;14.274;2022-11-18T11:43:47;13.80;67.80
34927;DHT22;21132;48.308;14.274;2022-11-18T11:49:52;13.90;68.30
34927;DHT22;21132;48.308;14.274;2022-11-18T11:52:38;13.90;68.00
34927;DHT22;21132;48.308;14.274;2022-11-18T11:58:03;14.00;67.40
34927;DHT22;21132;48.308;14.274;2022-11-18T12:00:37;13.90;67.50
34927;DHT22;21132;48.308;14.274;2022-11-18T12:06:11;14.00;67.50
34927;DHT22;21132;48.308;14.274;2022-11-18T12:08:54;14.00;67.20
34927;DHT22;21132;48.308;14.274;2022-11-18T12:11:40;14.00;66.90
34927;DHT22;21132;48.308;14.274;2022-11-18T12:14:28;13.90;66.80
34927;DHT22;21132;48.308;14.274;2022-11-18T12:17:12;13.90;66.90
34927;DHT22;21132;48.308;14.274;2022-11-18T12:19:41;13.90;66.70
34927;DHT22;21132;48.308;14.274;2022-11-18T12:22:07;13.90;66.70
34927;DHT22;21132;48.308;14.274;2022-11-18T12:24:38;13.90;66.70
34927;DHT22;21132;48.308;14.274;2022-11-18T12:27:06;13.80;66.30
34927;DHT22;21132;48.308;14.274;2022-11-18T12:35:22;13.80;66.30
34927;DHT22;21132;48.308;14.274;2022-11-18T12:40:44;13.80;66.00
34927;DHT22;21132;48.308;14.274;2022-11-18T12:51:48;13.80;65.20
34927;DHT22;21132;48.308;14.274;2022-11-18T12:54:21;13.70;64.80
34927;DHT22;21132;48.308;14.274;2022-11-18T12:56:49;13.80;65.10
34927;DHT22;21132;48.308;14.274;2022-11-18T12:59:15;13.80;65.10
34927;DHT22;21132;48.308;14.274;2022-11-18T13:01:41;13.80;65.10
34927;DHT22;21132;48.308;14.274;2022-11-18T13:04:11;13.80;64.90
34927;DHT22;21132;48.308;14.274;2022-11-18T13:06:39;13.80;64.30
34927;DHT22;21132;48.308;14.274;2022-11-18T13:09:16;13.80;64.40
34927;DHT22;21132;48.308;14.274;2022-11-18T13:11:49;13.80;64.00
34927;DHT22;21132;48.308;14.274;2022-11-18T13:18:04;13.70;63.50
34927;DHT22;21132;48.308;14.274;2022-11-18T13:23:18;13.70;63.10
34927;DHT22;21132;48.308;14.274;2022-11-18T13:26:23;13.70;63.20
34927;DHT22;21132;48.308;14.274;2022-11-18T13:29:10;13.60;62.90
34927;DHT22;21132;48.308;14.274;2022-11-18T13:32:06;13.60;63.20
34927;DHT22;21132;48.308;14.274;2022-11-18T13:34:48;13.60;63.10
34927;DHT22;21132;48.308;14.274;2022-11-18T13:37:18;13.60;62.90
34927;DHT22;21132;48.308;14.274;2022-11-18T13:39:46;13.60;63.00
34927;DHT22;21132;48.308;14.274;2022-11-18T13:44:51;13.50;62.50
34927;DHT22;21132;48.308;14.274;2022-11-18T13:47:39;13.60;62.50
34927;DHT22;21132;48.308;14.274;2022-11-18T13:50:11;13.50;62.60
34927;DHT22;21132;48.308;14.274;2022-11-18T13:55:27;13.50;62.50
34927;DHT22;21132;48.308;14.274;2022-11-18T13:58:02;13.50;62.80
34927;DHT22;21132;48.308;14.274;2022-11-18T14:00:30;13.50;62.60
34927;DHT22;21132;48.308;14.274;2022-11-18T14:03:01;13.50;62.50
34927;DHT22;21132;48.308;14.274;2022-11-18T14:05:28;13.50;62.60
34927;DHT22;21132;48.308;14.274;2022-11-18T14:10:40;13.50;62.50
34927;DHT22;21132;48.308;14.274;2022-11-18T14:13:17;13.50;62.50
34927;DHT22;21132;48.308;14.274;2022-11-18T14:15:44;13.60;62.80
34927;DHT22;21132;48.308;14.274;2022-11-18T14:18:28;13.60;62.80
34927;DHT22;21132;48.308;14.274;2022-11-18T14:20:55;13.50;62.80
34927;DHT22;21132;48.308;14.274;2022-11-18T14:23:32;13.60;63.20
34927;DHT22;21132;48.308;14.274;2022-11-18T14:26:04;13.60;63.80
34927;DHT22;21132;48.308;14.274;2022-11-18T14:28:40;13.60;63.90
34927;DHT22;21132;48.308;14.274;2022-11-18T14:31:30;13.50;64.00
34927;DHT22;21132;48.308;14.274;2022-11-18T14:34:22;13.50;65.50
34927;DHT22;21132;48.308;14.274;2022-11-18T14:36:50;13.40;67.10
34927;DHT22;21132;48.308;14.274;2022-11-18T14:39:27;13.30;68.00
34927;DHT22;21132;48.308;14.274;2022-11-18T14:41:54;13.20;67.60
